Slater, South Carolina
Current Conditions -  °F | °C
As of 2:53 AM on Sunday 26 Oct 2014 (Local Time) from KGMU Reporting Station
Clear Clear  
Wind Chill: 58°   Ceiling: Unl
Heat Index: 58°   Visibility: 10mi
Dew Point: 46°   Wind: 7mph
Humidity: 65%   Direction: 300°WNW
Pressure: 29.96"   Gusts: NA
Location:  35.03°N, 82.5°W
Report Text: KGMU 260653Z AUTO 30006KT 10SM CLR 14/08 A2996 RMK AO2 SLP138 T01440078 $
Loading
Personal Weather Stations






























Interactive Weather Map
Tropical Storm Tracking
New forecast layout! Learn more

10-Day Weather Forecast

Advertisements
Track Severe Weather on mobile